createdAt,value
2023-05-19T00:00:48.178Z,1187.00
2023-05-19T00:01:46.888Z,1198.00
2023-05-19T00:02:46.996Z,1173.00
2023-05-19T00:03:46.938Z,1168.00
2023-05-19T00:04:46.973Z,1186.00
2023-05-19T00:05:47.032Z,1171.00
2023-05-19T00:06:47.043Z,1157.00
2023-05-19T00:07:47.078Z,1188.00
2023-05-19T00:08:47.106Z,1186.00
2023-05-19T00:09:47.159Z,1197.00
2023-05-19T00:10:47.193Z,1171.00
2023-05-19T00:11:47.216Z,1156.00
2023-05-19T00:12:47.243Z,1152.00
2023-05-19T00:13:47.278Z,1169.00
2023-05-19T00:14:47.319Z,1187.00
2023-05-19T00:15:47.364Z,1183.00
2023-05-19T00:16:47.364Z,1172.00
2023-05-19T00:17:47.482Z,1182.00
2023-05-19T00:18:47.463Z,1201.00
2023-05-19T00:19:47.474Z,1189.00
2023-05-19T00:20:47.499Z,1178.00
2023-05-19T00:21:47.551Z,1193.00
2023-05-19T00:22:47.571Z,1189.00
2023-05-19T00:23:47.602Z,1158.00
2023-05-19T00:24:47.640Z,1178.00
2023-05-19T00:25:47.660Z,1203.00
2023-05-19T00:26:47.684Z,1178.00
2023-05-19T00:27:47.730Z,1178.00
2023-05-19T00:28:47.761Z,1190.00
2023-05-19T00:29:47.796Z,1188.00
2023-05-19T00:30:47.851Z,1216.00
2023-05-19T00:31:47.967Z,1209.00
2023-05-19T00:32:47.965Z,1210.00
2023-05-19T00:33:47.955Z,1223.00
2023-05-19T00:34:47.979Z,1190.00
2023-05-19T00:35:48.015Z,1196.00
2023-05-19T00:36:48.037Z,1193.00
2023-05-19T00:37:48.054Z,1210.00
2023-05-19T00:38:48.097Z,1213.00
2023-05-19T00:39:48.116Z,1186.00
2023-05-19T00:40:48.166Z,1216.00
2023-05-19T00:41:48.178Z,1206.00
2023-05-19T00:42:48.206Z,1226.00
2023-05-19T00:43:48.249Z,1204.00
2023-05-19T00:44:48.286Z,1198.00
2023-05-19T00:45:48.301Z,1193.00
2023-05-19T00:46:48.357Z,1202.00
2023-05-19T00:47:48.405Z,1214.00
2023-05-19T00:48:48.397Z,1194.00
2023-05-19T00:49:48.455Z,1187.00
2023-05-19T00:50:48.505Z,1205.00
2023-05-19T00:51:48.522Z,1199.00
2023-05-19T00:52:48.535Z,1182.00
2023-05-19T00:53:48.640Z,1221.00
2023-05-19T00:54:48.610Z,1209.00
2023-05-19T00:55:48.662Z,1224.00
2023-05-19T00:56:48.698Z,1213.00
2023-05-19T00:57:48.720Z,1222.00
2023-05-19T00:58:48.750Z,1233.00
2023-05-19T00:59:48.782Z,1226.00
2023-05-19T01:00:48.840Z,1232.00
2023-05-19T01:01:48.829Z,1226.00
2023-05-19T01:02:48.914Z,1248.00
2023-05-19T01:03:48.964Z,1242.00
2023-05-19T01:04:48.937Z,1233.00
2023-05-19T01:05:48.945Z,1208.00
2023-05-19T01:06:48.985Z,1222.00
2023-05-19T01:07:49.007Z,1233.00
2023-05-19T01:08:49.037Z,1229.00
2023-05-19T01:09:49.060Z,1231.00
2023-05-19T01:10:49.089Z,1228.00
2023-05-19T01:11:49.145Z,1229.00
2023-05-19T01:12:49.161Z,1220.00
2023-05-19T01:13:49.170Z,1226.00
2023-05-19T01:14:49.219Z,1230.00
2023-05-19T01:15:49.225Z,1212.00
2023-05-19T01:16:49.362Z,1241.00
2023-05-19T01:17:49.322Z,1222.00
2023-05-19T01:18:49.358Z,1234.00
2023-05-19T01:19:49.364Z,1236.00
2023-05-19T01:20:49.389Z,1236.00
2023-05-19T01:21:49.440Z,1242.00
2023-05-19T01:22:49.450Z,1231.00
2023-05-19T01:23:49.479Z,1228.00
2023-05-19T01:24:49.514Z,1245.00
2023-05-19T01:25:49.537Z,1246.00
2023-05-19T01:26:49.583Z,1258.00
2023-05-19T01:27:49.614Z,1231.00
2023-05-19T01:28:49.634Z,1250.00
2023-05-19T01:29:49.680Z,1228.00
2023-05-19T01:30:49.693Z,1253.00
2023-05-19T01:31:49.764Z,1246.00
2023-05-19T01:32:49.815Z,1245.00
2023-05-19T01:33:49.813Z,1241.00
2023-05-19T01:34:49.827Z,1266.00
2023-05-19T01:35:49.871Z,1276.00
2023-05-19T01:36:49.918Z,1263.00
2023-05-19T01:37:49.933Z,1256.00
2023-05-19T01:38:49.946Z,1272.00
2023-05-19T01:39:49.988Z,1249.00
2023-05-19T01:40:50.036Z,1251.00
2023-05-19T01:41:50.037Z,1266.00
2023-05-19T01:42:50.075Z,1270.00
2023-05-19T01:43:50.108Z,1275.00
2023-05-19T01:44:50.132Z,1271.00
2023-05-19T01:45:50.189Z,1267.00
2023-05-19T01:46:50.199Z,1270.00
2023-05-19T01:47:50.233Z,1260.00
2023-05-19T01:48:50.261Z,1286.00
2023-05-19T01:49:50.276Z,1276.00
2023-05-19T01:50:50.313Z,1293.00
2023-05-19T01:51:50.364Z,1291.00
2023-05-19T01:52:50.386Z,1279.00
2023-05-19T01:53:50.400Z,1273.00
2023-05-19T01:54:50.444Z,1280.00
2023-05-19T01:55:50.495Z,1287.00
2023-05-19T01:56:50.509Z,1279.00
2023-05-19T01:57:50.526Z,1247.00
2023-05-19T01:58:50.554Z,1262.00
2023-05-19T01:59:50.606Z,1279.00
2023-05-19T02:00:50.640Z,1294.00
2023-05-19T02:01:50.650Z,1282.00
2023-05-19T02:02:50.727Z,1276.00
2023-05-19T02:03:50.822Z,1266.00
2023-05-19T02:04:50.868Z,1257.00
2023-05-19T02:05:50.830Z,1292.00
2023-05-19T02:06:50.836Z,1293.00
2023-05-19T02:07:50.858Z,1289.00
2023-05-19T02:08:50.875Z,1274.00
2023-05-19T02:09:50.922Z,1279.00
2023-05-19T02:10:50.941Z,1282.00
2023-05-19T02:11:50.993Z,1299.00
2023-05-19T02:12:51.002Z,1293.00
2023-05-19T02:13:51.066Z,1264.00
2023-05-19T02:14:51.074Z,1306.00
2023-05-19T02:15:51.149Z,1288.00
2023-05-19T02:16:51.136Z,1301.00
2023-05-19T02:17:51.247Z,1282.00
2023-05-19T02:18:51.227Z,1293.00
2023-05-19T02:19:51.256Z,1286.00
2023-05-19T02:20:51.300Z,1283.00
2023-05-19T02:21:51.316Z,1287.00
2023-05-19T02:22:51.361Z,1283.00
2023-05-19T02:23:51.406Z,1287.00
2023-05-19T02:24:51.476Z,1296.00
2023-05-19T02:25:51.458Z,1290.00
2023-05-19T02:26:51.502Z,1281.00
2023-05-19T02:27:51.528Z,1301.00
2023-05-19T02:28:51.558Z,1309.00
2023-05-19T02:29:51.610Z,1286.00
2023-05-19T02:30:51.647Z,1286.00
2023-05-19T02:31:51.771Z,1292.00
2023-05-19T02:32:51.732Z,1297.00
2023-05-19T02:33:51.792Z,1262.00
2023-05-19T02:34:51.797Z,1294.00
2023-05-19T02:35:51.841Z,1289.00
2023-05-19T02:36:51.875Z,1288.00
2023-05-19T02:37:51.910Z,1292.00
2023-05-19T02:38:51.947Z,1289.00
2023-05-19T02:39:51.980Z,1279.00
2023-05-19T02:40:52.025Z,1290.00
2023-05-19T02:41:52.066Z,1295.00
2023-05-19T02:42:52.179Z,1289.00
2023-05-19T02:43:52.131Z,1309.00
2023-05-19T02:44:52.159Z,1308.00
2023-05-19T02:45:52.196Z,1324.00
2023-05-19T02:46:52.329Z,1284.00
2023-05-19T02:47:52.323Z,1291.00
2023-05-19T02:48:52.316Z,1295.00
2023-05-19T02:49:52.343Z,1295.00
2023-05-19T02:50:52.398Z,1310.00
2023-05-19T02:51:52.437Z,1304.00
2023-05-19T02:52:52.455Z,1309.00
2023-05-19T02:53:52.509Z,1333.00
2023-05-19T02:54:52.546Z,1323.00
2023-05-19T02:55:52.585Z,1318.00
2023-05-19T02:56:52.633Z,1303.00
2023-05-19T02:57:52.679Z,1322.00
2023-05-19T02:58:52.701Z,1309.00
2023-05-19T02:59:52.737Z,1305.00
2023-05-19T03:00:52.756Z,1300.00
2023-05-19T03:01:52.836Z,1293.00
2023-05-19T03:02:52.913Z,1294.00
2023-05-19T03:03:53.033Z,1295.00
2023-05-19T03:04:52.926Z,1307.00
2023-05-19T03:05:52.960Z,1321.00
2023-05-19T03:06:52.981Z,1300.00
2023-05-19T03:07:53.011Z,1286.00
2023-05-19T03:08:53.055Z,1298.00
2023-05-19T03:09:53.090Z,1298.00
2023-05-19T03:10:53.112Z,1304.00
2023-05-19T03:11:53.174Z,1297.00
2023-05-19T03:12:53.185Z,1291.00
2023-05-19T03:13:53.236Z,1293.00
2023-05-19T03:14:53.272Z,1308.00
2023-05-19T03:15:53.387Z,1302.00
2023-05-19T03:16:53.600Z,1313.00
2023-05-19T03:17:53.437Z,1318.00
2023-05-19T03:18:53.460Z,1315.00
2023-05-19T03:19:53.471Z,1312.00
2023-05-19T03:20:53.513Z,1305.00
2023-05-19T03:21:53.574Z,1310.00
2023-05-19T03:22:53.582Z,1323.00
2023-05-19T03:23:53.622Z,1316.00
2023-05-19T03:24:53.706Z,1318.00
2023-05-19T03:25:53.728Z,1333.00
2023-05-19T03:26:53.746Z,1306.00
2023-05-19T03:27:53.777Z,1327.00
2023-05-19T03:28:53.813Z,1328.00
2023-05-19T03:29:53.844Z,1331.00
2023-05-19T03:30:53.880Z,1342.00
2023-05-19T03:31:53.920Z,1325.00
2023-05-19T03:32:54.046Z,1313.00
2023-05-19T03:33:54.008Z,1317.00
2023-05-19T03:34:54.037Z,1324.00
2023-05-19T03:35:54.076Z,1323.00
2023-05-19T03:36:54.093Z,1330.00
2023-05-19T03:37:54.125Z,1335.00
2023-05-19T03:38:54.172Z,1316.00
2023-05-19T03:39:54.192Z,1315.00
2023-05-19T03:40:54.233Z,1331.00
2023-05-19T03:41:54.265Z,1332.00
2023-05-19T03:42:54.294Z,1348.00
2023-05-19T03:43:54.356Z,1338.00
2023-05-19T03:44:54.371Z,1336.00
2023-05-19T03:45:54.472Z,1340.00
2023-05-19T03:46:54.474Z,1335.00
2023-05-19T03:47:54.538Z,1340.00
2023-05-19T03:48:54.524Z,1324.00
2023-05-19T03:49:54.538Z,1326.00
2023-05-19T03:50:54.594Z,1333.00
2023-05-19T03:51:54.626Z,1334.00
2023-05-19T03:52:54.673Z,1331.00
2023-05-19T03:53:54.703Z,1325.00
2023-05-19T03:54:54.776Z,1347.00
2023-05-19T03:55:54.775Z,1329.00
2023-05-19T03:56:54.839Z,1340.00
2023-05-19T03:57:54.876Z,1315.00
2023-05-19T03:58:54.912Z,1340.00
2023-05-19T03:59:54.946Z,1334.00
2023-05-19T04:00:55.006Z,1342.00
2023-05-19T04:01:55.126Z,1331.00
2023-05-19T04:02:55.099Z,1320.00
2023-05-19T04:03:55.203Z,1329.00
2023-05-19T04:04:55.304Z,1303.00
2023-05-19T04:05:55.204Z,1303.00
2023-05-19T04:06:55.235Z,1317.00
2023-05-19T04:07:55.287Z,1308.00
2023-05-19T04:08:55.330Z,1312.00
2023-05-19T04:09:55.348Z,1312.00
2023-05-19T04:10:55.417Z,1314.00
2023-05-19T04:11:55.454Z,1326.00
2023-05-19T04:12:55.485Z,1310.00
2023-05-19T04:13:55.513Z,1321.00
2023-05-19T04:14:55.553Z,1324.00
2023-05-19T04:15:55.630Z,1313.00
2023-05-19T04:16:55.632Z,1331.00
2023-05-19T04:17:55.683Z,1332.00
2023-05-19T04:18:55.755Z,1309.00
2023-05-19T04:19:55.756Z,1311.00
2023-05-19T04:20:55.781Z,1330.00
2023-05-19T04:21:55.815Z,1323.00
2023-05-19T04:22:55.854Z,1311.00
2023-05-19T04:23:55.897Z,1313.00
2023-05-19T04:24:55.924Z,1309.00
2023-05-19T04:25:55.969Z,1297.00
2023-05-19T04:26:56.010Z,1295.00
2023-05-19T04:27:56.033Z,1321.00
2023-05-19T04:28:56.060Z,1318.00
2023-05-19T04:29:56.149Z,1318.00
2023-05-19T04:30:56.179Z,1313.00
2023-05-19T04:31:56.168Z,1326.00
2023-05-19T04:32:56.285Z,1321.00
2023-05-19T04:33:56.246Z,1311.00
2023-05-19T04:34:56.262Z,1297.00
2023-05-19T04:35:56.314Z,1283.00
2023-05-19T04:36:56.355Z,1285.00
2023-05-19T04:37:56.373Z,1307.00
2023-05-19T04:38:56.401Z,1300.00
2023-05-19T04:39:56.443Z,1306.00
2023-05-19T04:40:56.456Z,1305.00
2023-05-19T04:41:56.503Z,1298.00
2023-05-19T04:42:56.516Z,1300.00
2023-05-19T04:43:56.544Z,1267.00
2023-05-19T04:44:56.593Z,1281.00
2023-05-19T04:45:56.618Z,1289.00
2023-05-19T04:46:56.702Z,1263.00
2023-05-19T04:47:56.690Z,1283.00
2023-05-19T04:48:56.713Z,1260.00
2023-05-19T04:49:56.731Z,1257.00
2023-05-19T04:50:56.774Z,1227.00
2023-05-19T04:51:56.772Z,1245.00
2023-05-19T04:52:56.799Z,1231.00
2023-05-19T04:53:56.783Z,1228.00
2023-05-19T04:54:56.783Z,1219.00
2023-05-19T04:55:56.832Z,1198.00
2023-05-19T04:56:56.892Z,1182.00
2023-05-19T04:57:56.954Z,1166.00
2023-05-19T04:58:57.002Z,1116.00
2023-05-19T04:59:57.009Z,1121.00
2023-05-19T05:00:57.053Z,1133.00
2023-05-19T05:01:57.193Z,1138.00
2023-05-19T05:02:57.222Z,1126.00
2023-05-19T05:03:57.185Z,1133.00
2023-05-19T05:04:57.215Z,1122.00
2023-05-19T05:05:57.262Z,1132.00
2023-05-19T05:06:57.316Z,1111.00
2023-05-19T05:07:57.386Z,1130.00
2023-05-19T05:08:57.444Z,1119.00
2023-05-19T05:09:57.531Z,1106.00
2023-05-19T05:10:57.510Z,1102.00
2023-05-19T05:11:57.523Z,1108.00
2023-05-19T05:12:57.520Z,1095.00
2023-05-19T05:13:57.512Z,1089.00
2023-05-19T05:14:57.503Z,1097.00
2023-05-19T05:15:57.532Z,1089.00
2023-05-19T05:16:57.527Z,1116.00
2023-05-19T05:17:57.561Z,1109.00
2023-05-19T05:18:57.574Z,1105.00
2023-05-19T05:19:57.530Z,1112.00
2023-05-19T05:20:57.532Z,1109.00
2023-05-19T05:21:57.538Z,1124.00
2023-05-19T05:22:57.526Z,1120.00
2023-05-19T05:23:57.538Z,1120.00
2023-05-19T05:24:57.574Z,1115.00
2023-05-19T05:25:57.556Z,1126.00
2023-05-19T05:26:57.573Z,1128.00
2023-05-19T05:27:57.566Z,1113.00
2023-05-19T05:28:57.596Z,1128.00
2023-05-19T05:29:59.198Z,1136.00
2023-05-19T05:30:57.614Z,1158.00
2023-05-19T05:31:57.712Z,1151.00
2023-05-19T05:32:57.685Z,1142.00
2023-05-19T05:33:57.626Z,1144.00
2023-05-19T05:34:57.645Z,1139.00
2023-05-19T05:35:57.640Z,1127.00
2023-05-19T05:36:57.670Z,1130.00
2023-05-19T05:37:57.673Z,1125.00
2023-05-19T05:38:57.697Z,1130.00
2023-05-19T05:39:57.664Z,1111.00
2023-05-19T05:40:57.679Z,1126.00
2023-05-19T05:41:57.694Z,1114.00
2023-05-19T05:42:57.682Z,1118.00
2023-05-19T05:43:57.702Z,1091.00
2023-05-19T05:44:57.720Z,1092.00
2023-05-19T05:45:57.771Z,1113.00
2023-05-19T05:46:57.768Z,1127.00
2023-05-19T05:47:57.847Z,1111.00
2023-05-19T05:48:57.849Z,1129.00
2023-05-19T05:49:57.912Z,1107.00
2023-05-19T05:50:57.983Z,1115.00
2023-05-19T05:52:05.766Z,1095.00
2023-05-19T05:52:59.009Z,1095.00
2023-05-19T05:53:58.004Z,1085.00
2023-05-19T05:54:58.019Z,1086.00
2023-05-19T05:55:57.992Z,1084.00
2023-05-19T05:56:58.005Z,1072.00
2023-05-19T05:57:57.995Z,1091.00
2023-05-19T05:58:57.985Z,1076.00
2023-05-19T05:59:57.989Z,1058.00
2023-05-19T06:00:58.017Z,1047.00
2023-05-19T06:01:58.062Z,1053.00
2023-05-19T06:02:58.127Z,1055.00
2023-05-19T06:03:58.164Z,1067.00
2023-05-19T06:04:58.248Z,1057.00
2023-05-19T06:05:58.321Z,1041.00
2023-05-19T06:06:58.371Z,1047.00
2023-05-19T06:07:58.388Z,1053.00
2023-05-19T06:08:58.438Z,1040.00
2023-05-19T06:09:58.501Z,1036.00
2023-05-19T06:10:58.512Z,1059.00
2023-05-19T06:11:58.543Z,1061.00
2023-05-19T06:12:58.596Z,1086.00
2023-05-19T06:13:58.610Z,1049.00
2023-05-19T06:14:58.648Z,1051.00
2023-05-19T06:16:00.505Z,1060.00
2023-05-19T06:16:58.700Z,1069.00
2023-05-19T06:17:58.782Z,1056.00
2023-05-19T06:18:58.702Z,1050.00
2023-05-19T06:19:58.673Z,1032.00
2023-05-19T06:20:58.659Z,1022.00
2023-05-19T06:21:58.656Z,1009.00
2023-05-19T06:22:58.650Z,974.00
2023-05-19T06:23:58.644Z,963.00
2023-05-19T06:24:58.649Z,963.00
2023-05-19T06:25:58.624Z,982.00
2023-05-19T06:26:58.636Z,976.00
2023-05-19T06:27:58.611Z,996.00
2023-05-19T06:28:58.601Z,956.00
2023-05-19T06:29:58.610Z,964.00
2023-05-19T06:30:58.623Z,987.00
2023-05-19T06:31:58.687Z,978.00
2023-05-19T06:32:58.601Z,968.00
2023-05-19T06:33:58.579Z,952.00
2023-05-19T06:34:58.580Z,969.00
2023-05-19T06:35:58.558Z,996.00
2023-05-19T06:36:58.556Z,970.00
2023-05-19T06:37:58.555Z,984.00
2023-05-19T06:38:59.640Z,971.00
2023-05-19T06:39:58.544Z,958.00
2023-05-19T06:40:58.514Z,953.00
2023-05-19T06:41:58.525Z,964.00
2023-05-19T06:42:58.509Z,992.00
2023-05-19T06:43:58.498Z,987.00
2023-05-19T06:44:58.485Z,979.00
2023-05-19T06:45:58.533Z,948.00
2023-05-19T06:46:58.682Z,916.00
2023-05-19T06:47:58.706Z,899.00
2023-05-19T06:48:58.686Z,880.00
2023-05-19T06:49:58.714Z,898.00
2023-05-19T06:50:58.776Z,894.00
2023-05-19T06:51:58.819Z,884.00
2023-05-19T06:52:58.860Z,885.00
2023-05-19T06:53:58.897Z,905.00
2023-05-19T06:54:58.937Z,923.00
2023-05-19T06:56:00.237Z,895.00
2023-05-19T06:56:59.006Z,905.00
2023-05-19T06:57:59.059Z,942.00
2023-05-19T06:58:59.112Z,909.00
2023-05-19T06:59:59.139Z,943.00
2023-05-19T07:00:59.206Z,914.00
2023-05-19T07:01:59.292Z,917.00
2023-05-19T07:02:59.324Z,926.00
2023-05-19T07:03:59.538Z,933.00
2023-05-19T07:04:59.400Z,920.00
2023-05-19T07:05:59.463Z,934.00
2023-05-19T07:06:59.487Z,926.00
2023-05-19T07:07:59.549Z,958.00
2023-05-19T07:08:59.603Z,950.00
2023-05-19T07:09:59.662Z,952.00
2023-05-19T07:10:59.708Z,976.00
2023-05-19T07:11:59.762Z,970.00
2023-05-19T07:12:59.821Z,993.00
2023-05-19T07:13:59.863Z,1014.00
2023-05-19T07:14:59.902Z,998.00
2023-05-19T07:15:59.982Z,989.00
2023-05-19T07:16:59.977Z,967.00
2023-05-19T07:18:00.115Z,955.00
2023-05-19T07:19:00.215Z,940.00
2023-05-19T07:20:00.161Z,937.00
2023-05-19T07:21:00.158Z,939.00
2023-05-19T07:22:00.195Z,924.00
2023-05-19T07:23:00.253Z,934.00
2023-05-19T07:24:00.280Z,907.00
2023-05-19T07:25:00.316Z,904.00
2023-05-19T07:26:00.357Z,893.00
2023-05-19T07:27:00.390Z,886.00
2023-05-19T07:28:00.444Z,875.00
2023-05-19T07:29:00.482Z,840.00
2023-05-19T07:30:00.499Z,838.00
2023-05-19T07:31:00.630Z,848.00
2023-05-19T07:32:00.635Z,819.00
2023-05-19T07:33:00.679Z,820.00
2023-05-19T07:34:00.668Z,822.00
2023-05-19T07:35:00.727Z,824.00
2023-05-19T07:36:00.760Z,824.00
2023-05-19T07:37:00.792Z,842.00
2023-05-19T07:38:00.843Z,825.00
2023-05-19T07:39:00.937Z,800.00
2023-05-19T07:40:00.913Z,789.00
2023-05-19T07:41:00.947Z,779.00
2023-05-19T07:42:00.978Z,775.00
2023-05-19T07:43:01.008Z,768.00
2023-05-19T07:44:01.038Z,766.00
2023-05-19T07:45:01.085Z,762.00
2023-05-19T07:46:01.118Z,763.00
2023-05-19T07:47:01.230Z,750.00
2023-05-19T07:48:01.214Z,756.00
2023-05-19T07:49:01.192Z,771.00
2023-05-19T07:50:01.225Z,768.00
2023-05-19T07:51:01.257Z,801.00
2023-05-19T07:52:01.268Z,809.00
2023-05-19T07:53:01.312Z,821.00
2023-05-19T07:54:01.313Z,837.00
2023-05-19T07:55:01.348Z,838.00
2023-05-19T07:56:01.359Z,830.00
2023-05-19T07:57:01.384Z,829.00
2023-05-19T07:58:01.395Z,838.00
2023-05-19T07:59:01.415Z,854.00
2023-05-19T08:00:01.436Z,840.00
2023-05-19T08:01:01.468Z,850.00
2023-05-19T08:02:01.522Z,835.00
2023-05-19T08:03:01.592Z,846.00
2023-05-19T08:04:01.538Z,838.00
2023-05-19T08:05:01.513Z,844.00
2023-05-19T08:06:01.543Z,847.00
2023-05-19T08:07:01.534Z,866.00
2023-05-19T08:08:01.543Z,853.00
2023-05-19T08:09:01.557Z,845.00
2023-05-19T08:10:01.613Z,848.00
2023-05-19T08:11:01.724Z,836.00
2023-05-19T08:12:01.821Z,859.00
2023-05-19T08:13:01.813Z,878.00
2023-05-19T08:14:01.813Z,890.00
2023-05-19T08:15:02.112Z,882.00
2023-05-19T08:16:01.840Z,880.00
2023-05-19T08:17:01.907Z,902.00
2023-05-19T08:18:01.942Z,889.00
2023-05-19T08:19:02.072Z,886.00
2023-05-19T08:20:01.913Z,882.00
2023-05-19T08:21:01.906Z,871.00
2023-05-19T08:22:01.953Z,892.00
2023-05-19T08:23:02.009Z,903.00
2023-05-19T08:24:02.014Z,893.00
2023-05-19T08:25:02.011Z,867.00
2023-05-19T08:26:02.021Z,864.00
2023-05-19T08:27:02.005Z,873.00
2023-05-19T08:28:02.003Z,865.00
2023-05-19T08:29:02.077Z,881.00
2023-05-19T08:30:02.167Z,881.00
2023-05-19T08:31:02.204Z,880.00
2023-05-19T08:32:02.173Z,874.00
2023-05-19T08:33:02.251Z,877.00
2023-05-19T08:34:02.202Z,875.00
2023-05-19T08:35:02.187Z,885.00
2023-05-19T08:36:02.266Z,875.00
2023-05-19T08:37:02.278Z,875.00
2023-05-19T08:38:02.291Z,891.00
2023-05-19T08:39:02.302Z,888.00
2023-05-19T08:40:02.318Z,890.00
2023-05-19T08:41:02.315Z,901.00
2023-05-19T08:42:02.394Z,907.00
2023-05-19T08:43:02.376Z,916.00
2023-05-19T08:44:02.359Z,919.00
2023-05-19T08:45:02.389Z,909.00
2023-05-19T08:46:02.368Z,902.00
2023-05-19T08:47:02.429Z,916.00
2023-05-19T08:48:02.514Z,910.00
2023-05-19T08:49:02.434Z,925.00
2023-05-19T08:50:02.467Z,937.00
2023-05-19T08:51:02.433Z,937.00
2023-05-19T08:52:02.435Z,954.00
2023-05-19T08:53:02.451Z,949.00
2023-05-19T08:54:02.509Z,932.00
2023-05-19T08:55:02.596Z,929.00
2023-05-19T08:56:02.690Z,936.00
2023-05-19T08:57:02.806Z,921.00
2023-05-19T08:58:02.872Z,913.00
2023-05-19T08:59:02.868Z,942.00
2023-05-19T09:00:02.876Z,944.00
2023-05-19T09:01:02.910Z,947.00
2023-05-19T09:02:02.875Z,939.00
2023-05-19T09:04:02.964Z,928.00
2023-05-19T09:05:02.946Z,907.00
2023-05-19T09:06:02.889Z,911.00
2023-05-19T09:07:02.926Z,907.00
2023-05-19T09:08:02.861Z,900.00
2023-05-19T09:09:02.806Z,878.00
2023-05-19T09:10:02.817Z,872.00
2023-05-19T09:11:02.803Z,869.00
2023-05-19T09:12:02.815Z,864.00
2023-05-19T09:13:02.790Z,872.00
2023-05-19T09:14:02.767Z,881.00
2023-05-19T09:15:02.779Z,882.00
2023-05-19T09:16:02.784Z,884.00
2023-05-19T09:17:02.845Z,870.00
2023-05-19T09:18:02.861Z,847.00
2023-05-19T09:19:02.760Z,855.00
2023-05-19T09:20:02.748Z,839.00
2023-05-19T09:21:03.024Z,835.00
2023-05-19T09:22:02.720Z,848.00
2023-05-19T09:23:02.849Z,849.00
2023-05-19T09:24:02.718Z,875.00
2023-05-19T09:25:02.714Z,877.00
2023-05-19T09:26:02.694Z,863.00
2023-05-19T09:27:02.703Z,857.00
2023-05-19T09:28:02.681Z,868.00
2023-05-19T09:29:02.695Z,850.00
2023-05-19T09:30:02.661Z,845.00
2023-05-19T09:31:02.666Z,830.00
2023-05-19T09:32:02.671Z,816.00
2023-05-19T09:33:02.731Z,836.00
2023-05-19T09:34:02.668Z,841.00
2023-05-19T09:35:02.635Z,849.00
2023-05-19T09:36:02.665Z,837.00
2023-05-19T09:37:02.638Z,841.00
2023-05-19T09:38:02.613Z,855.00
2023-05-19T09:39:02.602Z,837.00
2023-05-19T09:40:02.611Z,849.00
2023-05-19T09:41:02.579Z,850.00
2023-05-19T09:42:02.576Z,839.00
2023-05-19T09:43:02.571Z,842.00
2023-05-19T09:44:02.577Z,854.00
2023-05-19T09:45:02.570Z,854.00
2023-05-19T09:46:02.565Z,857.00
2023-05-19T09:47:02.550Z,847.00
2023-05-19T09:48:02.573Z,819.00
2023-05-19T09:49:02.528Z,819.00
2023-05-19T09:50:02.542Z,814.00
2023-05-19T09:51:02.522Z,801.00
2023-05-19T09:52:02.514Z,808.00
2023-05-19T09:53:02.520Z,815.00
2023-05-19T09:54:02.497Z,813.00
2023-05-19T09:55:02.582Z,809.00
2023-05-19T09:56:02.485Z,807.00
2023-05-19T09:57:02.511Z,791.00
2023-05-19T09:58:02.471Z,769.00
2023-05-19T09:59:02.475Z,812.00
2023-05-19T10:00:02.462Z,821.00
2023-05-19T10:01:02.493Z,820.00
2023-05-19T10:02:02.944Z,811.00
2023-05-19T10:03:02.458Z,821.00
2023-05-19T10:04:03.691Z,801.00
2023-05-19T10:05:02.447Z,799.00
2023-05-19T10:06:02.428Z,814.00
2023-05-19T10:07:02.416Z,816.00
2023-05-19T10:08:02.426Z,808.00
2023-05-19T10:09:02.396Z,793.00
2023-05-19T10:10:02.402Z,765.00
2023-05-19T10:11:02.388Z,781.00
2023-05-19T10:12:02.378Z,787.00
2023-05-19T10:13:02.364Z,792.00
2023-05-19T10:14:02.388Z,800.00
2023-05-19T10:15:02.362Z,804.00
2023-05-19T10:16:02.563Z,804.00
2023-05-19T10:17:02.355Z,761.00
2023-05-19T10:18:02.418Z,732.00
2023-05-19T10:19:02.407Z,767.00
2023-05-19T10:20:02.358Z,771.00
2023-05-19T10:21:02.319Z,762.00
2023-05-19T10:22:02.320Z,752.00
2023-05-19T10:23:02.325Z,761.00
2023-05-19T10:24:02.355Z,757.00
2023-05-19T10:25:02.363Z,746.00
2023-05-19T10:26:02.371Z,730.00
2023-05-19T10:27:02.459Z,734.00
2023-05-19T10:28:02.412Z,737.00
2023-05-19T10:29:02.420Z,735.00
2023-05-19T10:30:02.512Z,735.00
2023-05-19T10:31:02.583Z,742.00
2023-05-19T10:32:02.608Z,753.00
2023-05-19T10:33:02.615Z,763.00
2023-05-19T10:34:02.589Z,741.00
2023-05-19T10:35:02.603Z,748.00
2023-05-19T10:36:02.613Z,754.00
2023-05-19T10:37:02.655Z,774.00
2023-05-19T10:38:02.646Z,782.00
2023-05-19T10:39:02.640Z,790.00
2023-05-19T10:40:02.638Z,772.00
2023-05-19T10:41:02.636Z,753.00
2023-05-19T10:42:02.636Z,758.00
2023-05-19T10:43:02.733Z,757.00
2023-05-19T10:44:02.701Z,759.00
2023-05-19T10:45:02.704Z,745.00
2023-05-19T10:46:02.689Z,723.00
2023-05-19T10:47:02.835Z,722.00
2023-05-19T10:48:02.748Z,723.00
2023-05-19T10:49:02.737Z,726.00
2023-05-19T10:50:02.803Z,723.00
2023-05-19T10:51:02.899Z,718.00
2023-05-19T10:52:03.064Z,705.00
2023-05-19T10:53:03.099Z,692.00
2023-05-19T10:54:03.169Z,682.00
2023-05-19T10:55:03.283Z,669.00
2023-05-19T10:56:03.385Z,682.00
2023-05-19T10:57:03.384Z,683.00
2023-05-19T10:58:03.374Z,696.00
2023-05-19T10:59:03.415Z,698.00
2023-05-19T11:00:03.371Z,682.00
2023-05-19T11:01:03.360Z,668.00
2023-05-19T11:02:03.518Z,672.00
2023-05-19T11:03:03.477Z,664.00
2023-05-19T11:04:03.580Z,658.00
2023-05-19T11:05:03.608Z,650.00
2023-05-19T11:06:03.681Z,648.00
2023-05-19T11:07:03.901Z,645.00
2023-05-19T11:08:03.860Z,641.00
2023-05-19T11:09:03.884Z,644.00
2023-05-19T11:10:03.900Z,644.00
2023-05-19T11:11:03.918Z,647.00
2023-05-19T11:12:03.966Z,643.00
2023-05-19T11:13:03.957Z,644.00
2023-05-19T11:14:03.973Z,640.00
2023-05-19T11:15:03.991Z,628.00
2023-05-19T11:16:04.059Z,628.00
2023-05-19T11:17:04.234Z,623.00
2023-05-19T11:18:04.220Z,638.00
2023-05-19T11:19:04.305Z,647.00
2023-05-19T11:20:04.374Z,630.00
2023-05-19T11:21:04.487Z,625.00
2023-05-19T11:22:04.484Z,627.00
2023-05-19T11:23:04.547Z,627.00
2023-05-19T11:24:04.529Z,637.00
2023-05-19T11:25:04.517Z,649.00
2023-05-19T11:26:04.507Z,654.00
2023-05-19T11:27:04.531Z,650.00
2023-05-19T11:28:04.577Z,640.00
2023-05-19T11:29:04.585Z,633.00
2023-05-19T11:30:04.632Z,621.00
2023-05-19T11:31:04.649Z,631.00
2023-05-19T11:32:04.694Z,631.00
2023-05-19T11:33:04.648Z,649.00
2023-05-19T11:34:04.683Z,658.00
2023-05-19T11:35:04.710Z,655.00
2023-05-19T11:36:04.754Z,657.00
2023-05-19T11:37:04.766Z,653.00
2023-05-19T11:38:04.789Z,644.00
2023-05-19T11:39:04.805Z,635.00
2023-05-19T11:40:04.816Z,624.00
2023-05-19T11:41:04.827Z,628.00
2023-05-19T11:42:04.833Z,622.00
2023-05-19T11:43:04.844Z,632.00
2023-05-19T11:44:04.933Z,650.00
2023-05-19T11:45:05.033Z,655.00
2023-05-19T11:46:05.068Z,650.00
2023-05-19T11:47:05.017Z,639.00
2023-05-19T11:48:05.079Z,631.00
2023-05-19T11:49:05.072Z,630.00
2023-05-19T11:50:05.091Z,635.00
2023-05-19T11:51:05.106Z,629.00
2023-05-19T11:52:05.222Z,637.00
2023-05-19T11:53:05.294Z,627.00
2023-05-19T11:54:05.357Z,628.00
2023-05-19T11:55:05.369Z,632.00
2023-05-19T11:56:05.403Z,644.00
2023-05-19T11:57:05.404Z,641.00
2023-05-19T11:58:06.037Z,639.00
2023-05-19T11:59:05.437Z,632.00
2023-05-19T12:00:05.455Z,630.00
2023-05-19T12:01:05.476Z,630.00
2023-05-19T12:02:05.473Z,622.00
2023-05-19T12:03:05.827Z,624.00
2023-05-19T12:04:05.646Z,618.00
2023-05-19T12:05:05.625Z,620.00
2023-05-19T12:06:05.637Z,622.00
2023-05-19T12:07:05.600Z,622.00
2023-05-19T12:08:05.632Z,626.00
2023-05-19T12:09:05.673Z,626.00
2023-05-19T12:10:05.729Z,623.00
2023-05-19T12:11:05.755Z,621.00
2023-05-19T12:12:05.843Z,620.00
2023-05-19T12:13:05.900Z,613.00
2023-05-19T12:14:05.953Z,607.00
2023-05-19T12:15:05.971Z,619.00
2023-05-19T12:16:06.051Z,626.00
2023-05-19T12:17:06.050Z,619.00
2023-05-19T12:18:06.100Z,620.00